createdAt,value
2018-09-27T00:00:30.165Z,1023.64
2018-09-27T00:01:30.193Z,1023.64
2018-09-27T00:02:30.223Z,1023.70
2018-09-27T00:03:30.265Z,1023.66
2018-09-27T00:04:30.274Z,1023.61
2018-09-27T00:05:30.303Z,1023.63
2018-09-27T00:06:30.334Z,1023.61
2018-09-27T00:07:30.357Z,1023.59
2018-09-27T00:08:30.382Z,1023.57
2018-09-27T00:09:30.410Z,1023.56
2018-09-27T00:10:30.435Z,1023.56
2018-09-27T00:11:30.464Z,1023.53
2018-09-27T00:12:30.489Z,1023.53
2018-09-27T00:13:30.516Z,1023.56
2018-09-27T00:14:30.543Z,1023.54
2018-09-27T00:15:30.574Z,1023.58
2018-09-27T00:16:30.596Z,1023.61
2018-09-27T00:17:30.625Z,1023.57
2018-09-27T00:18:30.650Z,1023.60
2018-09-27T00:19:30.715Z,1023.66
2018-09-27T00:20:30.704Z,1023.60
2018-09-27T00:21:30.730Z,1023.65
2018-09-27T00:22:30.760Z,1023.62
2018-09-27T00:23:30.785Z,1023.64
2018-09-27T00:24:30.813Z,1023.63
2018-09-27T00:25:30.838Z,1023.68
2018-09-27T00:26:30.868Z,1023.68
2018-09-27T00:27:30.894Z,1023.66
2018-09-27T00:28:30.920Z,1023.64
2018-09-27T00:29:30.948Z,1023.61
2018-09-27T00:30:30.972Z,1023.63
2018-09-27T00:31:31.002Z,1023.60
2018-09-27T00:33:31.053Z,1023.62
2018-09-27T00:34:31.083Z,1023.66
2018-09-27T00:35:31.107Z,1023.63
2018-09-27T00:36:31.133Z,1023.67
2018-09-27T00:37:31.160Z,1023.69
2018-09-27T00:38:31.188Z,1023.72
2018-09-27T00:39:31.216Z,1023.68
2018-09-27T00:40:31.241Z,1023.64
2018-09-27T00:41:31.267Z,1023.65
2018-09-27T00:42:31.293Z,1023.63
2018-09-27T00:43:31.321Z,1023.62
2018-09-27T00:44:31.348Z,1023.57
2018-09-27T00:45:31.375Z,1023.52
2018-09-27T00:46:31.602Z,1023.50
2018-09-27T00:47:31.427Z,1023.48
2018-09-27T00:48:31.472Z,1023.50
2018-09-27T00:49:31.481Z,1023.51
2018-09-27T00:50:31.509Z,1023.51
2018-09-27T00:51:31.538Z,1023.54
2018-09-27T00:52:31.562Z,1023.54
2018-09-27T00:53:31.588Z,1023.58
2018-09-27T00:54:31.637Z,1023.58
2018-09-27T00:55:31.641Z,1023.55
2018-09-27T00:56:31.667Z,1023.56
2018-09-27T00:57:31.694Z,1023.59
2018-09-27T00:58:31.724Z,1023.56
2018-09-27T00:59:31.755Z,1023.53
2018-09-27T01:00:31.778Z,1023.53
2018-09-27T01:01:31.801Z,1023.50
2018-09-27T01:02:31.828Z,1023.53
2018-09-27T01:03:31.855Z,1023.48
2018-09-27T01:04:31.881Z,1023.49
2018-09-27T01:05:31.910Z,1023.57
2018-09-27T01:06:31.935Z,1023.52
2018-09-27T01:07:31.982Z,1023.46
2018-09-27T01:08:31.990Z,1023.48
2018-09-27T01:09:32.015Z,1023.50
2018-09-27T01:10:32.042Z,1023.51
2018-09-27T01:11:32.071Z,1023.52
2018-09-27T01:12:32.095Z,1023.53
2018-09-27T01:13:32.121Z,1023.54
2018-09-27T01:14:32.150Z,1023.52
2018-09-27T01:15:32.179Z,1023.51
2018-09-27T01:16:32.202Z,1023.49
2018-09-27T01:17:32.228Z,1023.47
2018-09-27T01:18:32.256Z,1023.44
2018-09-27T01:19:32.282Z,1023.39
2018-09-27T01:20:32.309Z,1023.40
2018-09-27T01:21:32.338Z,1023.41
2018-09-27T01:22:32.364Z,1023.35
2018-09-27T01:23:32.389Z,1023.40
2018-09-27T01:24:32.417Z,1023.40
2018-09-27T01:25:32.441Z,1023.33
2018-09-27T01:26:32.471Z,1023.37
2018-09-27T01:27:32.500Z,1023.35
2018-09-27T01:28:32.524Z,1023.38
2018-09-27T01:29:32.900Z,1023.35
2018-09-27T01:30:32.578Z,1023.38
2018-09-27T01:31:32.620Z,1023.39
2018-09-27T01:32:32.632Z,1023.43
2018-09-27T01:33:32.656Z,1023.39
2018-09-27T01:34:32.684Z,1023.40
2018-09-27T01:35:32.709Z,1023.38
2018-09-27T01:36:32.736Z,1023.41
2018-09-27T01:37:32.765Z,1023.37
2018-09-27T01:38:32.790Z,1023.39
2018-09-27T01:39:32.818Z,1023.40
2018-09-27T01:40:32.844Z,1023.37
2018-09-27T01:41:32.869Z,1023.37
2018-09-27T01:42:32.898Z,1023.34
2018-09-27T01:43:32.927Z,1023.29
2018-09-27T01:44:32.948Z,1023.25
2018-09-27T01:45:32.976Z,1023.21
2018-09-27T01:46:33.002Z,1023.25
2018-09-27T01:47:33.029Z,1023.20
2018-09-27T01:48:33.080Z,1023.22
2018-09-27T01:49:33.082Z,1023.22
2018-09-27T01:50:33.109Z,1023.23
2018-09-27T01:51:33.136Z,1023.21
2018-09-27T01:52:33.161Z,1023.19
2018-09-27T01:53:33.190Z,1023.22
2018-09-27T01:54:33.215Z,1023.23
2018-09-27T01:55:33.242Z,1023.26
2018-09-27T01:56:33.267Z,1023.18
2018-09-27T01:57:33.297Z,1023.18
2018-09-27T01:58:33.321Z,1023.17
2018-09-27T01:59:33.350Z,1023.16
2018-09-27T02:00:33.375Z,1023.13
2018-09-27T02:01:33.401Z,1023.14
2018-09-27T02:02:33.429Z,1023.14
2018-09-27T02:03:33.454Z,1023.11
2018-09-27T02:04:33.481Z,1023.07
2018-09-27T02:05:33.508Z,1023.07
2018-09-27T02:06:33.536Z,1023.06
2018-09-27T02:07:33.561Z,1023.07
2018-09-27T02:08:33.588Z,1023.02
2018-09-27T02:09:33.615Z,1023.08
2018-09-27T02:10:33.643Z,1023.01
2018-09-27T02:11:33.670Z,1023.01
2018-09-27T02:12:33.693Z,1023.06
2018-09-27T02:13:33.719Z,1022.99
2018-09-27T02:14:33.747Z,1023.06
2018-09-27T02:15:33.773Z,1023.00
2018-09-27T02:16:33.802Z,1023.00
2018-09-27T02:17:33.827Z,1022.99
2018-09-27T02:18:33.854Z,1023.01
2018-09-27T02:19:33.885Z,1022.98
2018-09-27T02:20:33.906Z,1022.97
2018-09-27T02:21:33.933Z,1022.98
2018-09-27T02:22:33.961Z,1022.96
2018-09-27T02:23:33.989Z,1022.91
2018-09-27T02:24:34.028Z,1022.94
2018-09-27T02:25:34.041Z,1022.89
2018-09-27T02:26:34.067Z,1022.87
2018-09-27T02:27:34.093Z,1022.83
2018-09-27T02:28:34.119Z,1022.85
2018-09-27T02:29:34.148Z,1022.81
2018-09-27T02:30:34.192Z,1022.81
2018-09-27T02:31:34.201Z,1022.84
2018-09-27T02:32:34.225Z,1022.82
2018-09-27T02:33:34.253Z,1022.78
2018-09-27T02:34:34.299Z,1022.76
2018-09-27T02:35:34.308Z,1022.71
2018-09-27T02:36:34.334Z,1022.78
2018-09-27T02:37:34.360Z,1022.75
2018-09-27T02:38:34.385Z,1022.77
2018-09-27T02:39:34.413Z,1022.77
2018-09-27T02:40:34.438Z,1022.76
2018-09-27T02:41:34.466Z,1022.75
2018-09-27T02:42:34.491Z,1022.78
2018-09-27T02:43:34.518Z,1022.76
2018-09-27T02:44:34.546Z,1022.79
2018-09-27T02:45:34.572Z,1022.81
2018-09-27T02:46:34.601Z,1022.84
2018-09-27T02:47:34.628Z,1022.84
2018-09-27T02:48:34.651Z,1022.86
2018-09-27T02:49:34.679Z,1022.82
2018-09-27T02:50:34.704Z,1022.75
2018-09-27T02:51:34.734Z,1022.77
2018-09-27T02:52:34.757Z,1022.75
2018-09-27T02:53:34.786Z,1022.70
2018-09-27T02:54:34.810Z,1022.72
2018-09-27T02:55:34.841Z,1022.71
2018-09-27T02:56:34.865Z,1022.69
2018-09-27T02:57:34.890Z,1022.72
2018-09-27T02:58:34.917Z,1022.75
2018-09-27T02:59:34.945Z,1022.69
2018-09-27T03:00:34.970Z,1022.68
2018-09-27T03:01:34.998Z,1022.70
2018-09-27T03:02:35.022Z,1022.70
2018-09-27T03:03:35.052Z,1022.74
2018-09-27T03:04:35.076Z,1022.74
2018-09-27T03:05:35.105Z,1022.74
2018-09-27T03:06:35.132Z,1022.71
2018-09-27T03:07:35.159Z,1022.69
2018-09-27T03:08:35.184Z,1022.72
2018-09-27T03:09:35.209Z,1022.66
2018-09-27T03:10:35.236Z,1022.65
2018-09-27T03:11:35.263Z,1022.64
2018-09-27T03:12:35.288Z,1022.59
2018-09-27T03:13:35.316Z,1022.55
2018-09-27T03:14:35.343Z,1022.58
2018-09-27T03:15:35.373Z,1022.57
2018-09-27T03:16:35.417Z,1022.58
2018-09-27T03:17:35.424Z,1022.61
2018-09-27T03:18:35.459Z,1022.55
2018-09-27T03:19:35.476Z,1022.58
2018-09-27T03:20:35.502Z,1022.61
2018-09-27T03:21:35.530Z,1022.58
2018-09-27T03:22:35.556Z,1022.56
2018-09-27T03:23:35.585Z,1022.55
2018-09-27T03:24:35.609Z,1022.53
2018-09-27T03:25:35.655Z,1022.52
2018-09-27T03:26:35.665Z,1022.51
2018-09-27T03:27:35.690Z,1022.45
2018-09-27T03:28:35.717Z,1022.48
2018-09-27T03:29:35.743Z,1022.44
2018-09-27T03:30:35.770Z,1022.40
2018-09-27T03:31:35.797Z,1022.45
2018-09-27T03:32:35.826Z,1022.43
2018-09-27T03:33:35.856Z,1022.47
2018-09-27T03:34:35.878Z,1022.45
2018-09-27T03:35:35.904Z,1022.48
2018-09-27T03:36:35.931Z,1022.48
2018-09-27T03:37:35.958Z,1022.52
2018-09-27T03:38:36.004Z,1022.46
2018-09-27T03:39:36.031Z,1022.50
2018-09-27T03:40:36.162Z,1022.52
2018-09-27T03:41:36.079Z,1022.50
2018-09-27T03:42:36.093Z,1022.51
2018-09-27T03:43:36.125Z,1022.51
2018-09-27T03:44:36.146Z,1022.49
2018-09-27T03:45:36.188Z,1022.50
2018-09-27T03:46:36.200Z,1022.50
2018-09-27T03:47:36.227Z,1022.50
2018-09-27T03:48:36.255Z,1022.49
2018-09-27T03:49:36.282Z,1022.44
2018-09-27T03:50:36.308Z,1022.50
2018-09-27T03:51:36.335Z,1022.47
2018-09-27T03:52:36.361Z,1022.42
2018-09-27T03:53:36.388Z,1022.43
2018-09-27T03:54:36.415Z,1022.48
2018-09-27T03:55:36.443Z,1022.47
2018-09-27T03:56:36.488Z,1022.41
2018-09-27T03:57:36.498Z,1022.42
2018-09-27T03:58:36.525Z,1022.37
2018-09-27T03:59:36.551Z,1022.38
2018-09-27T04:00:36.578Z,1022.33
2018-09-27T04:01:36.604Z,1022.37
2018-09-27T04:02:36.633Z,1022.39
2018-09-27T04:03:36.662Z,1022.36
2018-09-27T04:04:36.687Z,1022.39
2018-09-27T04:05:36.713Z,1022.37
2018-09-27T04:06:36.741Z,1022.29
2018-09-27T04:07:36.768Z,1022.32
2018-09-27T04:08:36.794Z,1022.29
2018-09-27T04:09:36.821Z,1022.32
2018-09-27T04:10:36.849Z,1022.30
2018-09-27T04:11:36.890Z,1022.29
2018-09-27T04:12:36.916Z,1022.28
2018-09-27T04:13:36.929Z,1022.29
2018-09-27T04:14:36.955Z,1022.28
2018-09-27T04:15:36.985Z,1022.27
2018-09-27T04:16:37.011Z,1022.23
2018-09-27T04:17:37.036Z,1022.26
2018-09-27T04:18:37.064Z,1022.28
2018-09-27T04:19:37.090Z,1022.26
2018-09-27T04:20:37.117Z,1022.29
2018-09-27T04:21:37.149Z,1022.26
2018-09-27T04:22:37.177Z,1022.28
2018-09-27T04:23:37.198Z,1022.27
2018-09-27T04:24:37.244Z,1022.29
2018-09-27T04:25:37.254Z,1022.25
2018-09-27T04:26:37.280Z,1022.29
2018-09-27T04:27:37.372Z,1022.26
2018-09-27T04:28:37.335Z,1022.29
2018-09-27T04:29:37.364Z,1022.28
2018-09-27T04:30:37.388Z,1022.26
2018-09-27T04:31:37.415Z,1022.29
2018-09-27T04:32:37.441Z,1022.32
2018-09-27T04:33:37.518Z,1022.29
2018-09-27T04:34:37.495Z,1022.26
2018-09-27T04:35:37.543Z,1022.24
2018-09-27T04:36:37.550Z,1022.28
2018-09-27T04:37:37.578Z,1022.22
2018-09-27T04:38:37.605Z,1022.21
2018-09-27T04:39:37.669Z,1022.23
2018-09-27T04:40:37.659Z,1022.25
2018-09-27T04:41:37.706Z,1022.29
2018-09-27T04:42:37.714Z,1022.26
2018-09-27T04:43:37.743Z,1022.22
2018-09-27T04:44:37.767Z,1022.24
2018-09-27T04:45:37.836Z,1022.26
2018-09-27T04:46:37.885Z,1022.22
2018-09-27T04:47:37.849Z,1022.22
2018-09-27T04:48:37.875Z,1022.21
2018-09-27T04:49:37.906Z,1022.23
2018-09-27T04:50:37.934Z,1022.24
2018-09-27T04:51:37.993Z,1022.21
2018-09-27T04:52:37.985Z,1022.21
2018-09-27T04:53:38.011Z,1022.17
2018-09-27T04:54:38.102Z,1022.16
2018-09-27T04:55:38.067Z,1022.15
2018-09-27T04:56:38.097Z,1022.18
2018-09-27T04:57:38.119Z,1022.19
2018-09-27T04:58:38.146Z,1022.15
2018-09-27T04:59:38.173Z,1022.19
2018-09-27T05:00:38.202Z,1022.18
2018-09-27T05:01:38.227Z,1022.20
2018-09-27T05:02:38.254Z,1022.24
2018-09-27T05:03:38.327Z,1022.22
2018-09-27T05:04:38.310Z,1022.20
2018-09-27T05:05:38.337Z,1022.25
2018-09-27T05:06:38.362Z,1022.23
2018-09-27T05:07:38.409Z,1022.18
2018-09-27T05:08:38.417Z,1022.25
2018-09-27T05:09:38.500Z,1022.19
2018-09-27T05:10:38.473Z,1022.13
2018-09-27T05:11:38.499Z,1022.14
2018-09-27T05:12:38.525Z,1022.15
2018-09-27T05:13:38.554Z,1022.20
2018-09-27T05:14:38.579Z,1022.18
2018-09-27T05:15:38.671Z,1022.17
2018-09-27T05:16:38.633Z,1022.14
2018-09-27T05:17:38.662Z,1022.18
2018-09-27T05:18:38.689Z,1022.20
2018-09-27T05:19:38.716Z,1022.18
2018-09-27T05:20:38.744Z,1022.20
2018-09-27T05:21:38.829Z,1022.20
2018-09-27T05:22:38.796Z,1022.24
2018-09-27T05:23:38.824Z,1022.25
2018-09-27T05:24:38.855Z,1022.22
2018-09-27T05:25:38.880Z,1022.25
2018-09-27T05:26:38.904Z,1022.25
2018-09-27T05:27:38.994Z,1022.25
2018-09-27T05:28:38.960Z,1022.21
2018-09-27T05:29:38.985Z,1022.22
2018-09-27T05:30:39.034Z,1022.23
2018-09-27T05:31:39.040Z,1022.19
2018-09-27T05:32:39.066Z,1022.19
2018-09-27T05:33:39.184Z,1022.20
2018-09-27T05:34:39.122Z,1022.18
2018-09-27T05:35:39.153Z,1022.20
2018-09-27T05:36:39.176Z,1022.15
2018-09-27T05:37:39.203Z,1022.19
2018-09-27T05:38:39.231Z,1022.15
2018-09-27T05:39:39.336Z,1022.19
2018-09-27T05:40:39.287Z,1022.23
2018-09-27T05:41:39.313Z,1022.22
2018-09-27T05:42:39.337Z,1022.20
2018-09-27T05:43:39.367Z,1022.22
2018-09-27T05:44:39.393Z,1022.24
2018-09-27T05:45:39.491Z,1022.22
2018-09-27T05:46:39.447Z,1022.21
2018-09-27T05:47:39.476Z,1022.18
2018-09-27T05:48:39.501Z,1022.18
2018-09-27T05:49:39.529Z,1022.19
2018-09-27T05:50:39.556Z,1022.18
2018-09-27T05:51:39.702Z,1022.15
2018-09-27T05:52:39.608Z,1022.12
2018-09-27T05:53:39.637Z,1022.14
2018-09-27T05:54:39.664Z,1022.21
2018-09-27T05:55:39.692Z,1022.17
2018-09-27T05:56:39.737Z,1022.16
2018-09-27T05:57:39.750Z,1022.16
2018-09-27T05:58:39.771Z,1022.16
2018-09-27T05:59:39.798Z,1022.18
2018-09-27T06:00:39.827Z,1022.20
2018-09-27T06:01:39.861Z,1022.22
2018-09-27T06:02:39.881Z,1022.22
2018-09-27T06:03:39.971Z,1022.22
2018-09-27T06:04:39.965Z,1022.24
2018-09-27T06:05:39.960Z,1022.26
2018-09-27T06:06:39.992Z,1022.19
2018-09-27T06:07:40.017Z,1022.22
2018-09-27T06:08:40.043Z,1022.18
2018-09-27T06:09:40.162Z,1022.18
2018-09-27T06:10:40.095Z,1022.19
2018-09-27T06:11:40.130Z,1022.21
2018-09-27T06:12:40.148Z,1022.20
2018-09-27T06:13:40.178Z,1022.20
2018-09-27T06:14:40.203Z,1022.22
2018-09-27T06:15:40.309Z,1022.24
2018-09-27T06:16:40.258Z,1022.21
2018-09-27T06:17:40.286Z,1022.23
2018-09-27T06:18:40.314Z,1022.19
2018-09-27T06:19:40.439Z,1022.20
2018-09-27T06:20:40.367Z,1022.22
2018-09-27T06:21:40.486Z,1022.21
2018-09-27T06:22:40.421Z,1022.18
2018-09-27T06:23:40.446Z,1022.17
2018-09-27T06:24:40.472Z,1022.22
2018-09-27T06:25:40.516Z,1022.18
2018-09-27T06:26:40.528Z,1022.20
2018-09-27T06:27:40.626Z,1022.16
2018-09-27T06:28:40.582Z,1022.18
2018-09-27T06:29:40.610Z,1022.18
2018-09-27T06:30:40.636Z,1022.21
2018-09-27T06:31:40.662Z,1022.13
2018-09-27T06:32:40.689Z,1022.22
2018-09-27T06:33:40.808Z,1022.26
2018-09-27T06:34:40.746Z,1022.30
2018-09-27T06:35:40.770Z,1022.25
2018-09-27T06:36:40.799Z,1022.29
2018-09-27T06:37:40.824Z,1022.29
2018-09-27T06:38:40.914Z,1022.34
2018-09-27T06:39:40.885Z,1022.30
2018-09-27T06:40:40.908Z,1022.34
2018-09-27T06:41:40.936Z,1022.28
2018-09-27T06:42:40.962Z,1022.30
2018-09-27T06:43:40.987Z,1022.26
2018-09-27T06:44:41.043Z,1022.35
2018-09-27T06:45:41.043Z,1022.33
2018-09-27T06:46:41.069Z,1022.30
2018-09-27T06:47:41.098Z,1022.33
2018-09-27T06:48:41.174Z,1022.32
2018-09-27T06:49:41.153Z,1022.31
2018-09-27T06:50:41.290Z,1022.31
2018-09-27T06:51:41.204Z,1022.30
2018-09-27T06:52:41.234Z,1022.31
2018-09-27T06:53:41.261Z,1022.31
2018-09-27T06:54:41.292Z,1022.30
2018-09-27T06:55:41.485Z,1022.30
2018-09-27T06:56:41.430Z,1022.36
2018-09-27T06:57:41.372Z,1022.27
2018-09-27T06:58:41.396Z,1022.30
2018-09-27T06:59:41.425Z,1022.25
2018-09-27T07:00:41.455Z,1022.32
2018-09-27T07:01:41.478Z,1022.35
2018-09-27T07:02:41.607Z,1022.30
2018-09-27T07:03:41.583Z,1022.24
2018-09-27T07:04:41.575Z,1022.20
2018-09-27T07:05:41.587Z,1022.20
2018-09-27T07:06:41.615Z,1022.18
2018-09-27T07:07:41.641Z,1022.17
2018-09-27T07:08:41.696Z,1022.14
2018-09-27T07:09:41.702Z,1022.11
2018-09-27T07:10:41.723Z,1022.15
2018-09-27T07:11:41.757Z,1022.11
2018-09-27T07:12:41.812Z,1022.16
2018-09-27T07:13:41.805Z,1022.07
2018-09-27T07:14:41.915Z,1022.13
2018-09-27T07:15:41.914Z,1022.08
2018-09-27T07:16:41.886Z,1022.09
2018-09-27T07:17:41.914Z,1022.10
2018-09-27T07:18:41.954Z,1022.09
2018-09-27T07:19:41.970Z,1022.06
2018-09-27T07:20:42.042Z,1022.04
2018-09-27T07:21:42.026Z,1022.08
2018-09-27T07:22:42.057Z,1022.07
2018-09-27T07:23:42.080Z,1022.03
2018-09-27T07:24:42.110Z,1022.02
2018-09-27T07:25:42.135Z,1022.02
2018-09-27T07:26:42.226Z,1021.98
2018-09-27T07:27:42.190Z,1021.98
2018-09-27T07:28:42.217Z,1021.97
2018-09-27T07:29:42.241Z,1022.00
2018-09-27T07:30:42.274Z,1022.01
2018-09-27T07:31:42.297Z,1022.04
2018-09-27T07:32:42.386Z,1022.04
2018-09-27T07:33:42.353Z,1022.04
2018-09-27T07:34:42.379Z,1022.32
2018-09-27T07:35:42.408Z,1022.98
2018-09-27T07:36:42.568Z,1023.96
2018-09-27T07:37:42.461Z,1024.54
2018-09-27T07:38:42.552Z,1024.70
2018-09-27T07:39:42.519Z,1024.51
2018-09-27T07:40:42.545Z,1024.48
2018-09-27T07:41:42.573Z,1024.14
2018-09-27T07:42:42.664Z,1022.77
2018-09-27T07:43:42.631Z,1022.06
2018-09-27T07:44:42.728Z,1022.03
2018-09-27T07:45:42.686Z,1022.16
2018-09-27T07:46:42.720Z,1022.46
2018-09-27T07:47:42.745Z,1023.06
2018-09-27T07:48:42.775Z,1023.60
2018-09-27T07:49:42.802Z,1024.15
2018-09-27T07:50:42.953Z,1024.25
2018-09-27T07:51:42.861Z,1024.22
2018-09-27T07:52:42.893Z,1024.18
2018-09-27T07:53:42.920Z,1024.13
2018-09-27T07:54:43.003Z,1024.10
2018-09-27T07:55:42.980Z,1024.14
2018-09-27T07:56:43.124Z,1024.04
2018-09-27T07:57:43.043Z,1023.91
2018-09-27T07:58:43.072Z,1023.95
2018-09-27T07:59:43.103Z,1023.88
2018-09-27T08:00:43.135Z,1023.80
2018-09-27T08:01:43.165Z,1023.74
2018-09-27T08:02:43.280Z,1023.67
2018-09-27T08:03:43.271Z,1023.68
2018-09-27T08:04:43.265Z,1023.72
2018-09-27T08:05:43.296Z,1023.60
2018-09-27T08:06:43.326Z,1023.59
2018-09-27T08:07:43.359Z,1023.52
2018-09-27T08:08:43.500Z,1023.49
2018-09-27T08:09:43.426Z,1023.43
2018-09-27T08:10:43.458Z,1023.40
2018-09-27T08:11:43.523Z,1023.33
2018-09-27T08:13:43.561Z,1023.27
2018-09-27T08:14:43.620Z,1023.27
2018-09-27T08:15:43.629Z,1023.28
2018-09-27T08:16:43.732Z,1023.27
2018-09-27T08:17:43.699Z,1023.26
2018-09-27T08:18:43.740Z,1023.21
2018-09-27T08:19:43.770Z,1023.24
2018-09-27T08:20:44.049Z,1023.24
2018-09-27T08:21:43.842Z,1023.14
2018-09-27T08:22:43.873Z,1023.20
2018-09-27T08:23:43.911Z,1023.13
2018-09-27T08:24:43.948Z,1023.11
2018-09-27T08:25:43.981Z,1023.12
2018-09-27T08:26:44.037Z,1023.11
2018-09-27T08:27:44.056Z,1023.09
2018-09-27T08:28:44.092Z,1023.09
2018-09-27T08:29:44.450Z,1023.06
2018-09-27T08:36:36.826Z,1023.01
2018-09-27T08:37:36.832Z,1022.99
2018-09-27T08:38:36.918Z,1022.99
2018-09-27T08:39:36.897Z,1022.94
2018-09-27T08:48:52.979Z,1022.80
2018-09-27T08:49:53.015Z,1022.78
2018-09-27T08:50:53.375Z,1022.80
2018-09-27T08:51:53.089Z,1022.78
2018-09-27T08:52:53.129Z,1022.78
2018-09-27T08:53:53.167Z,1022.74
2018-09-27T08:54:53.204Z,1022.75
2018-09-27T08:59:44.255Z,1022.61
2018-09-27T09:00:44.312Z,1022.56
2018-09-27T09:01:44.434Z,1022.54
2018-09-27T09:02:44.366Z,1022.52
2018-09-27T09:03:44.523Z,1022.48
2018-09-27T09:04:44.444Z,1022.47
2018-09-27T09:06:27.042Z,1022.52
2018-09-27T09:07:27.086Z,1022.52
2018-09-27T09:08:27.117Z,1022.54
2018-09-27T09:09:27.211Z,1022.49
2018-09-27T09:10:27.193Z,1022.50
2018-09-27T09:11:27.232Z,1022.52
2018-09-27T09:12:27.270Z,1022.53
2018-09-27T09:13:27.342Z,1022.51
2018-09-27T09:14:27.348Z,1022.48
2018-09-27T09:15:27.431Z,1022.48
2018-09-27T09:16:27.425Z,1022.46
2018-09-27T09:17:27.462Z,1022.38
2018-09-27T09:18:27.501Z,1022.40
2018-09-27T09:19:27.569Z,1022.41
2018-09-27T09:20:27.577Z,1022.43
2018-09-27T09:21:27.661Z,1022.40
2018-09-27T09:22:27.652Z,1022.38
2018-09-27T09:23:27.690Z,1022.39
2018-09-27T09:24:27.747Z,1022.40
2018-09-27T09:25:27.810Z,1022.41
2018-09-27T09:26:27.808Z,1022.38
2018-09-27T09:27:27.903Z,1022.41
2018-09-27T09:28:27.941Z,1022.38
2018-09-27T09:29:27.955Z,1022.39
2018-09-27T09:30:27.961Z,1022.38
2018-09-27T09:31:27.999Z,1022.39
2018-09-27T09:32:28.038Z,1022.37
2018-09-27T09:33:28.112Z,1022.36
2018-09-27T09:34:28.113Z,1022.38
2018-09-27T09:35:28.208Z,1022.32
2018-09-27T09:37:28.230Z,1022.27
2018-09-27T09:38:28.270Z,1022.18
2018-09-27T09:39:28.309Z,1022.15
2018-09-27T09:40:28.346Z,1022.14
2018-09-27T09:41:28.384Z,1022.11
2018-09-27T09:43:46.081Z,1022.09
2018-09-27T09:44:48.732Z,1022.16
2018-09-27T09:45:46.142Z,1022.04
2018-09-27T09:46:46.185Z,1021.96
2018-09-27T09:47:46.219Z,1021.96
2018-09-27T09:48:46.262Z,1021.95
2018-09-27T09:49:46.296Z,1021.95
2018-09-27T09:50:46.341Z,1021.92
2018-09-27T09:51:46.376Z,1021.93
2018-09-27T09:52:46.415Z,1021.93
2018-09-27T09:53:46.453Z,1021.88
2018-09-27T09:54:46.493Z,1021.86
2018-09-27T09:55:46.531Z,1021.82
2018-09-27T09:56:46.570Z,1021.77
2018-09-27T09:57:46.609Z,1021.76
2018-09-27T09:58:46.661Z,1021.76
2018-09-27T09:59:46.684Z,1021.77
2018-09-27T10:00:46.723Z,1021.79
2018-09-27T10:01:46.768Z,1021.71
2018-09-27T10:02:46.800Z,1021.75
2018-09-27T10:03:46.838Z,1021.69
2018-09-27T10:04:46.897Z,1021.70
2018-09-27T10:05:46.934Z,1021.66
2018-09-27T10:06:46.974Z,1021.71
2018-09-27T10:07:47.316Z,1021.70
2018-09-27T10:08:47.100Z,1021.71
2018-09-27T10:09:47.073Z,1021.65
2018-09-27T10:10:47.111Z,1021.67
2018-09-27T10:12:47.187Z,1021.62
2018-09-27T10:13:47.228Z,1021.58
2018-09-27T10:14:47.692Z,1021.55
2018-09-27T10:15:47.307Z,1021.58
2018-09-27T10:16:47.670Z,1021.54
2018-09-27T10:17:47.599Z,1021.50
2018-09-27T10:18:47.422Z,1021.52
2018-09-27T10:19:47.786Z,1021.50
2018-09-27T10:20:47.514Z,1021.48
2018-09-27T10:21:47.576Z,1021.42
2018-09-27T10:22:47.600Z,1021.42
2018-09-27T10:24:47.657Z,1021.38
2018-09-27T10:25:47.711Z,1021.37
2018-09-27T10:26:47.961Z,1021.34
2018-09-27T10:27:47.789Z,1021.32
2018-09-27T10:28:47.809Z,1021.32
2018-09-27T10:29:47.848Z,1021.28
2018-09-27T10:30:47.907Z,1021.27
2018-09-27T10:31:47.949Z,1021.21
2018-09-27T10:32:47.964Z,1021.22
2018-09-27T10:33:48.004Z,1021.23
2018-09-27T10:34:48.044Z,1021.19
2018-09-27T10:35:48.084Z,1021.22
2018-09-27T10:36:48.124Z,1021.24
2018-09-27T10:37:48.162Z,1021.19
2018-09-27T10:38:48.199Z,1021.16
2018-09-27T10:39:48.239Z,1021.16
2018-09-27T10:40:48.277Z,1021.17
2018-09-27T10:41:50.937Z,1021.12
2018-09-27T10:42:48.355Z,1021.14
2018-09-27T10:43:48.394Z,1021.17
2018-09-27T10:44:48.469Z,1021.16
2018-09-27T10:45:51.701Z,1021.17
2018-09-27T10:46:48.508Z,1021.13
2018-09-27T10:47:48.546Z,1021.15
2018-09-27T10:48:48.585Z,1021.11
2018-09-27T10:49:48.626Z,1021.12
2018-09-27T10:50:48.668Z,1021.14
2018-09-27T10:51:48.706Z,1021.09
2018-09-27T10:52:48.749Z,1021.12
2018-09-27T10:53:48.793Z,1021.13
2018-09-27T10:54:48.824Z,1021.11
2018-09-27T10:55:48.861Z,1021.07
2018-09-27T10:56:48.901Z,1021.08
2018-09-27T10:57:48.942Z,1021.07
2018-09-27T10:58:48.983Z,1021.09
2018-09-27T10:59:49.019Z,1021.08
2018-09-27T11:00:49.059Z,1021.06
2018-09-27T11:01:49.100Z,1021.04
2018-09-27T11:02:49.140Z,1021.08
2018-09-27T11:03:49.177Z,1021.04
2018-09-27T11:04:49.218Z,1021.03
2018-09-27T11:05:49.584Z,1020.98
2018-09-27T11:06:49.310Z,1020.97
2018-09-27T11:07:49.334Z,1020.97
2018-09-27T11:08:49.374Z,1020.96
2018-09-27T11:09:49.414Z,1020.96
2018-09-27T11:10:49.460Z,1020.97
2018-09-27T11:11:49.492Z,1020.96
2018-09-27T11:12:49.532Z,1020.91
2018-09-27T11:13:49.573Z,1020.90
2018-09-27T11:14:49.616Z,1020.93
2018-09-27T11:15:49.650Z,1020.88
2018-09-27T11:16:49.691Z,1020.85
2018-09-27T11:17:49.730Z,1020.85
2018-09-27T11:18:49.772Z,1020.85
2018-09-27T11:19:49.809Z,1020.78
2018-09-27T11:20:49.851Z,1020.75
2018-09-27T11:21:49.893Z,1020.77
2018-09-27T11:22:49.984Z,1020.71
2018-09-27T11:23:49.969Z,1020.73
2018-09-27T11:24:50.009Z,1020.73
2018-09-27T11:25:50.050Z,1020.67
2018-09-27T11:26:50.089Z,1020.65
2018-09-27T11:27:50.144Z,1020.61
2018-09-27T11:28:50.188Z,1020.61
2018-09-27T11:29:50.208Z,1020.62
2018-09-27T11:30:50.251Z,1020.58
2018-09-27T11:31:50.286Z,1020.57
2018-09-27T11:32:50.332Z,1020.53
2018-09-27T11:33:50.366Z,1020.54
2018-09-27T11:34:50.404Z,1020.48
2018-09-27T11:35:50.443Z,1020.49
2018-09-27T11:36:50.486Z,1020.47
2018-09-27T11:37:50.525Z,1020.44
2018-09-27T11:38:50.569Z,1020.46
2018-09-27T11:39:50.603Z,1020.42
2018-09-27T11:40:50.642Z,1020.43
2018-09-27T11:41:50.684Z,1020.38
2018-09-27T11:42:50.783Z,1020.33
2018-09-27T11:43:50.804Z,1020.32
2018-09-27T11:44:50.803Z,1020.29
2018-09-27T11:45:50.853Z,1020.33
2018-09-27T11:46:50.878Z,1020.30
2018-09-27T11:47:50.919Z,1020.28
2018-09-27T11:48:50.969Z,1020.18
2018-09-27T11:49:51.058Z,1020.17
2018-09-27T11:50:51.037Z,1020.04
2018-09-27T11:51:51.074Z,1020.02
2018-09-27T11:52:51.114Z,1019.98
2018-09-27T11:53:51.200Z,1020.02
2018-09-27T11:54:51.223Z,1020.09
2018-09-27T11:55:51.235Z,1020.06
2018-09-27T11:56:51.272Z,1020.12
2018-09-27T11:57:51.312Z,1020.13
2018-09-27T11:58:51.391Z,1020.09
2018-09-27T11:59:51.389Z,1020.07
2018-09-27T12:00:51.428Z,1020.04
2018-09-27T12:01:51.469Z,1020.02
2018-09-27T12:02:51.509Z,1019.96
2018-09-27T12:03:51.547Z,1019.98
2018-09-27T12:04:51.585Z,1019.96
2018-09-27T12:05:51.631Z,1019.94
2018-09-27T12:06:51.663Z,1019.87
2018-09-27T12:07:51.703Z,1019.85
2018-09-27T12:08:51.759Z,1019.85
2018-09-27T12:09:51.798Z,1019.93
2018-09-27T12:10:51.821Z,1019.77
2018-09-27T12:11:51.892Z,1019.79
2018-09-27T12:12:51.914Z,1019.82
2018-09-27T12:13:51.938Z,1019.79
2018-09-27T12:14:51.977Z,1019.75
2018-09-27T12:15:52.015Z,1019.79
2018-09-27T12:16:52.059Z,1019.81
2018-09-27T12:17:52.103Z,1019.76
2018-09-27T12:18:52.134Z,1019.73
2018-09-27T12:19:52.212Z,1019.77
2018-09-27T12:20:52.207Z,1019.74
2018-09-27T12:21:52.245Z,1019.70
2018-09-27T12:22:52.336Z,1019.67
2018-09-27T12:23:52.325Z,1019.65
2018-09-27T12:24:52.362Z,1019.66
2018-09-27T12:25:52.403Z,1019.67
2018-09-27T12:26:52.441Z,1019.75
2018-09-27T12:27:52.477Z,1019.72
2018-09-27T12:28:52.519Z,1019.68
2018-09-27T12:29:52.555Z,1019.73
2018-09-27T12:30:52.597Z,1019.72